METAR Data
IDs: Format: Raw Decoded Include TAF

Data at: 0525 UTC 19 Aug 2019

KRUT 190456Z AUTO 09003KT 10SM CLR 20/19 A2993 RMK AO2 SLP125 T02000189 402830144 $
KRUT 190356Z AUTO 16005KT 10SM CLR 20/19 A2994 RMK AO2 SLP130 T02000194 $
KRUT 190256Z AUTO 00000KT 10SM BKN060 OVC070 22/20 A2997 RMK AO2 LTG DSNT S SLP141 60000 T02170200 51005 $
KRUT 190156Z AUTO 20010KT 10SM SCT080 22/22 A2996 RMK AO2 LTG DSNT SE-W RAB30E56 SLP137 P0000 T02220217 $
KRUT 190056Z AUTO 12008KT 10SM FEW035 23/21 A2996 RMK AO2 LTG DSNT S RAB22E50 SLP138 P0000 T02280211 $
KRUT 182356Z AUTO 13006KT 10SM SCT045 24/21 A2995 RMK AO2 SLP135 T02390211 10283 20233 56014 $
KRUT 182256Z AUTO 11007KT 10SM BKN110 25/21 A2996 RMK AO2 SLP138 T02500211 $
KRUT 182156Z AUTO 07004KT 10SM FEW047 27/21 A2997 RMK AO2 SLP140 T02670206 $
KRUT 182056Z AUTO 26006KT 10SM CLR 28/18 A3000 RMK AO2 SLP149 T02830183 55010 $
KRUT 181956Z AUTO 00000KT 10SM CLR 28/18 A2999 RMK AO2 SLP148 T02780178 $
KRUT 181856Z AUTO 26007KT 10SM CLR 27/18 A3000 RMK AO2 SLP153 T02720183 $
KRUT 181756Z AUTO 23008KT 10SM CLR 27/18 A3003 RMK AO2 SLP159 T02720183 10272 20161 55012 $
KRUT 181656Z AUTO 00000KT 10SM FEW024 SCT032 26/19 A3001 RMK AO2 SLP155 T02560194 $
KRUT 181556Z AUTO VRB04KT 10SM CLR 24/19 A3002 RMK AO2 SLP159 T02440194 $
KRUT 181456Z AUTO 00000KT 10SM FEW030 21/19 A3006 RMK AO2 SLP171 T02110189 50004 $
KRUT 181414Z AUTO 00000KT 10SM OVC030 19/18 A3007 RMK AO2 $
KRUT 181356Z AUTO 00000KT 10SM OVC028 19/18 A3007 RMK AO2 SLP174 T01890178 $
KRUT 181339Z AUTO 25003KT 10SM FEW001 OVC028 18/18 A3006 RMK AO2 $
KRUT 181324Z AUTO 00000KT 10SM BKN001 OVC028 17/17 A3006 RMK AO2 $
KRUT 181312Z AUTO 16003KT 2 1/2SM BR OVC001 17/17 A3006 RMK AO2 $
KRUT 181309Z AUTO VRB03KT 1SM BR BKN001 17/17 A3006 RMK AO2 $
KRUT 181259Z AUTO 17004KT 1/2SM FG BKN001 17/17 A3006 RMK AO2 $
KRUT 181256Z AUTO 17004KT 1SM BR BKN001 17/17 A3006 RMK AO2 SLP171 T01720172 $
KRUT 181235Z AUTO 00000KT 4SM BR OVC001 17/17 A3005 RMK AO2 $
KRUT 181233Z AUTO 00000KT 1 1/2SM BR OVC001 17/17 A3005 RMK AO2 VIS 1/2V5 $
KRUT 181231Z AUTO 00000KT 3/4SM BR OVC001 17/17 A3005 RMK AO2 VIS 1/4V5 $
KRUT 181202Z AUTO 18003KT 1/4SM FG BKN001 16/16 A3006 RMK AO2 $
KRUT 181158Z AUTO 21003KT 3/4SM BR BKN001 16/16 A3005 RMK AO2 VIS M1/4V5 $
KRUT 181156Z AUTO 21003KT 2SM BR BKN001 16/16 A3005 RMK AO2 VIS 3/4V5 SLP169 60001 70024 T01560156 10167 20144 51010 $
KRUT 181153Z AUTO 18003KT 3SM BR BKN001 16/16 A3005 RMK AO2 $
KRUT 181151Z AUTO VRB03KT 1 1/2SM BR BKN001 16/16 A3004 RMK AO2 VIS 1/2V5 $
KRUT 181149Z AUTO 14004KT 3/4SM BR BKN001 16/16 A3004 RMK AO2 VIS M1/4V5 $
KRUT 181137Z AUTO 13003KT 1/4SM FG BKN001 16/16 A3005 RMK AO2 $
KRUT 181134Z AUTO 00000KT 1SM BR BKN001 16/16 A3005 RMK AO2 $
KRUT 181125Z AUTO 14005KT 10SM BKN001 15/15 A3004 RMK AO2 $
KRUT 181123Z AUTO 13005KT 1 1/4SM BR BKN001 15/15 A3004 RMK AO2 $
KRUT 181113Z AUTO 12005KT 1/4SM FG OVC001 15/15 A3004 RMK AO2 $
KRUT 181059Z AUTO 00000KT 3/4SM BR OVC001 15/15 A3004 RMK AO2 VIS 1/4V3 $
KRUT 181056Z AUTO 00000KT 1 3/4SM BR BKN001 15/15 A3003 RMK AO2 VIS 3/4V3 SLP164 P0001 T01500150 $
KRUT 181052Z AUTO 00000KT 1 3/4SM BR BKN001 15/15 A3003 RMK AO2 VIS 3/4V5 $
KRUT 180956Z AUTO 12004KT 10SM OVC001 15/15 A3003 RMK AO2 SLP160 T01500150 $
KRUT 180951Z AUTO 12005KT 3SM BR OVC001 15/15 A3003 RMK AO2 $
KRUT 180941Z AUTO 12004KT 1 3/4SM BR OVC001 15/15 A3003 RMK AO2 VIS 3/4V5 $
KRUT 180919Z AUTO 12005KT 5SM BR OVC001 16/16 A3002 RMK AO2 $
KRUT 180907Z AUTO 07003KT 1 3/4SM BR OVC001 16/16 A3002 RMK AO2 $
KRUT 180905Z AUTO 00000KT 3/4SM BR OVC001 16/16 A3002 RMK AO2 $
KRUT 180856Z AUTO 00000KT 1/4SM FG OVC001 16/16 A3002 RMK AO2 SLP156 T01560156 58002 $
KRUT 180842Z AUTO 00000KT 1/4SM FG BKN001 16/16 A3001 RMK AO2 $
KRUT 180827Z AUTO 14003KT 1/2SM FG BKN001 16/16 A3001 RMK AO2 $
KRUT 180817Z AUTO 12004KT 1SM BR BKN001 16/16 A3001 RMK AO2 $
KRUT 180756Z AUTO 00000KT 1/4SM FG OVC001 16/16 A3002 RMK AO2 SLP158 T01610161 $
KRUT 180733Z AUTO 00000KT 1/4SM FG BKN001 16/16 A3002 RMK AO2 $
KRUT 180720Z AUTO 17003KT 1/2SM FG VV001 16/16 A3003 RMK AO2 $
KRUT 180718Z AUTO 17004KT 1SM BR VV001 16/16 A3003 RMK AO2 $
KRUT 180656Z AUTO 15004KT 10SM FEW003 16/16 A3003 RMK AO2 SLP159 T01610161 $
KRUT 180637Z AUTO 00000KT 3SM BR SCT001 16/16 A3002 RMK AO2 $
KRUT 180634Z AUTO 00000KT 1 1/2SM BR BKN001 17/17 A3002 RMK AO2 VIS 1/2V5 $
KRUT 180632Z AUTO 00000KT 3/4SM BR BKN001 17/17 A3002 RMK AO2 VIS 1/4V5 $
KRUT 180624Z AUTO 00000KT 1/4SM FG OVC001 16/16 A3002 RMK AO2 $
KRUT 180607Z AUTO 17004KT 3/4SM BR VV001 17/17 A3003 RMK AO2 $
KRUT 180601Z AUTO 18004KT 1 3/4SM BR SCT002 17/17 A3002 RMK AO2 $
KRUT 180556Z AUTO 18004KT 7SM FEW002 17/17 A3002 RMK AO2 SLP158 60000 T01670167 10189 20167 50006 $
KRUT 180547Z AUTO 20003KT 2SM BR FEW002 17/17 A3002 RMK AO2 $
KRUT 180538Z AUTO 16003KT 1SM BR VV002 17/17 A3002 RMK AO2 VIS 1/2V4 $
KRUT 180533Z AUTO 14004KT 2SM BR SCT002 17/17 A3002 RMK AO2 VIS 3/4V5 $
KRUT 180456Z AUTO 15005KT 10SM FEW120 18/17 A3003 RMK AO2 SLP159 T01780172 402890172 $
KRUT 180414Z AUTO 19003KT 9SM FEW002 BKN110 17/17 A3002 RMK AO2 $
KRUT 180356Z AUTO 15004KT 10SM BKN110 18/18 A3002 RMK AO2 SLP160 T01780178 $
KRUT 180256Z AUTO 14004KT 10SM CLR 18/18 A3001 RMK AO2 SLP153 60000 T01780178 51007 $
KRUT 180156Z AUTO 15006KT 10SM CLR 18/18 A3001 RMK AO2 SLP151 T01830183 $
KRUT 180056Z AUTO 00000KT 10SM CLR 19/18 A2998 RMK AO2 RAE00 SLP145 P0000 T01890183 $
KRUT 172356Z AUTO 15005KT 10SM -RA FEW060 SCT070 BKN120 19/19 A2998 RMK AO2 LTG DSNT E TSE18 SLP144 P0010 60023 T01890189 10289 20189 50014 $
KRUT 172318Z AUTO 09004KT 6SM RA BR FEW019 BKN060 OVC075 19/19 A3002 RMK AO2 LTG DSNT N-SE TSE18 P0005 $
KRUT 172256Z AUTO 12009KT 5SM TSRA BR SCT015 BKN023 OVC045 20/19 A3004 RMK AO2 LTG DSNT NE-SE TSE05B16RAB34 SLP164 P0013 T02000189 $
KRUT 172216Z AUTO VRB03KT 9SM VCTS BKN050 25/21 A2995 RMK AO2 LTG DSNT ALQDS TSE05B16 $
KRUT 172156Z AUTO 01003KT 10SM VCTS BKN055 BKN075 26/20 A2994 RMK AO2 LTG DSNT ALQDS TSB45 SLP130 T02610200 $
KRUT 172056Z AUTO VRB03KT 10SM FEW065 28/19 A2994 RMK AO2 SLP128 T02830194 56022 $
KRUT 171956Z AUTO 20004KT 10SM SCT049 SCT060 BKN100 28/19 A2996 RMK AO2 SLP135 T02780189 $
KRUT 171856Z AUTO VRB04KT 10SM FEW043 28/19 A2999 RMK AO2 SLP143 T02830189 $
KRUT 171756Z AUTO 19005KT 10SM SCT042 BKN050 BKN055 28/19 A3001 RMK AO2 SLP150 T02780189 10278 20200 56009 $